createdAt,value
2023-01-10T13:07:30.344Z,66.14
2023-01-10T13:09:58.068Z,66.25
2023-01-10T13:12:38.842Z,66.15
2023-01-10T13:15:18.857Z,66.50
2023-01-10T13:17:48.959Z,67.13
2023-01-10T13:20:16.605Z,67.97
2023-01-10T13:22:45.947Z,68.56
2023-01-10T13:25:25.310Z,69.59
2023-01-10T13:28:26.568Z,70.35
2023-01-10T13:31:01.338Z,71.15
2023-01-10T13:33:33.765Z,71.61
2023-01-10T13:36:17.818Z,71.73
2023-01-10T13:39:01.535Z,72.35
2023-01-10T13:42:19.068Z,72.55
2023-01-10T13:45:01.883Z,73.15
2023-01-10T13:47:48.758Z,73.58
2023-01-10T13:50:23.874Z,74.28
2023-01-10T13:53:04.713Z,75.08
2023-01-10T13:55:46.749Z,75.65
2023-01-10T13:58:14.514Z,76.00
2023-01-10T14:01:02.992Z,76.50
2023-01-10T14:03:45.321Z,77.09
2023-01-10T14:06:19.899Z,77.30
2023-01-10T14:08:53.236Z,77.67
2023-01-10T14:11:24.893Z,78.29
2023-01-10T14:13:54.870Z,79.26
2023-01-10T14:16:35.694Z,80.00
2023-01-10T14:19:05.405Z,80.65
2023-01-10T14:21:37.348Z,80.98
2023-01-10T14:24:05.322Z,81.73
2023-01-10T14:26:40.865Z,82.64
2023-01-10T14:29:10.249Z,83.16
2023-01-10T14:31:39.060Z,83.20
2023-01-10T14:34:11.124Z,83.37
2023-01-10T14:36:45.652Z,83.20
2023-01-10T14:39:14.196Z,83.23
2023-01-10T14:41:44.098Z,83.37
2023-01-10T14:44:22.963Z,84.13
2023-01-10T14:46:52.172Z,85.03
2023-01-10T14:49:34.464Z,85.48
2023-01-10T14:52:26.069Z,85.30
2023-01-10T14:55:11.811Z,85.28
2023-01-10T14:57:39.279Z,85.71
2023-01-10T15:00:18.031Z,86.11
2023-01-10T15:02:46.143Z,86.38
2023-01-10T15:05:22.222Z,86.77
2023-01-10T15:07:49.826Z,86.72
2023-01-10T15:10:26.218Z,86.93
2023-01-10T15:12:55.177Z,86.89
2023-01-10T15:15:43.930Z,87.01
2023-01-10T15:18:36.828Z,86.20
2023-01-10T15:21:04.603Z,85.71
2023-01-10T15:23:40.124Z,85.66
2023-01-10T15:26:11.005Z,86.27
2023-01-10T15:28:38.733Z,86.28
2023-01-10T15:31:07.149Z,86.45
2023-01-10T15:33:37.438Z,86.53
2023-01-10T15:36:12.909Z,86.81
2023-01-10T15:38:43.291Z,86.85
2023-01-10T15:41:11.055Z,87.38
2023-01-10T15:43:40.184Z,87.80
2023-01-10T15:46:08.914Z,87.84
2023-01-10T15:48:37.946Z,87.59
2023-01-10T15:51:27.719Z,87.67
2023-01-10T15:54:03.835Z,87.67
2023-01-10T15:56:32.879Z,87.99
2023-01-10T15:59:00.763Z,87.75
2023-01-10T20:18:14.354Z,100.00
2023-01-10T20:20:42.601Z,100.00
2023-01-10T20:23:12.651Z,100.00
2023-01-10T20:25:42.462Z,100.00
2023-01-10T20:28:10.437Z,100.00
2023-01-10T20:30:53.059Z,100.00
2023-01-10T20:33:58.692Z,100.00
2023-01-10T20:36:26.970Z,100.00
2023-01-10T20:38:57.186Z,100.00
2023-01-10T20:41:26.536Z,100.00
2023-01-10T20:43:54.973Z,100.00
2023-01-10T20:46:32.122Z,100.00
2023-01-10T20:49:02.334Z,100.00
2023-01-10T20:51:34.855Z,100.00
2023-01-10T20:54:03.130Z,100.00
2023-01-10T20:56:31.399Z,100.00
2023-01-10T20:58:59.264Z,100.00
2023-01-10T21:01:35.793Z,100.00
2023-01-10T21:04:04.755Z,100.00
2023-01-10T21:06:32.570Z,100.00
2023-01-10T21:09:00.981Z,100.00
2023-01-10T21:11:28.701Z,100.00
2023-01-10T21:13:56.325Z,100.00
2023-01-10T21:16:25.749Z,100.00
2023-01-10T21:18:53.559Z,100.00
2023-01-10T21:21:22.884Z,100.00
2023-01-10T21:23:50.425Z,100.00
2023-01-10T21:26:18.805Z,100.00
2023-01-10T21:28:50.455Z,100.00
2023-01-10T21:31:24.647Z,100.00
2023-01-10T21:33:57.268Z,100.00
2023-01-10T21:36:25.315Z,100.00
2023-01-10T21:38:53.589Z,100.00
2023-01-10T21:41:40.611Z,100.00
2023-01-10T21:44:08.369Z,100.00
2023-01-10T21:46:36.617Z,100.00
2023-01-10T21:49:04.411Z,100.00
2023-01-10T21:51:33.163Z,100.00
2023-01-10T21:54:01.200Z,100.00
2023-01-10T21:56:28.757Z,100.00
2023-01-10T21:58:56.400Z,100.00
2023-01-10T22:01:23.987Z,100.00
2023-01-10T22:03:53.520Z,100.00
2023-01-10T22:06:21.718Z,100.00
2023-01-10T22:08:50.750Z,100.00
2023-01-10T22:11:18.486Z,100.00
2023-01-10T22:13:48.340Z,100.00
2023-01-10T22:16:17.483Z,100.00
2023-01-10T22:18:47.677Z,100.00
2023-01-10T22:21:17.626Z,100.00
2023-01-10T22:23:46.137Z,100.00
2023-01-10T22:26:15.613Z,100.00
2023-01-10T22:28:43.386Z,100.00
2023-01-10T22:31:11.006Z,100.00
2023-01-10T22:33:38.703Z,100.00
2023-01-10T22:36:07.603Z,100.00
2023-01-10T22:38:35.452Z,100.00
2023-01-10T22:41:12.352Z,100.00
2023-01-10T22:43:39.904Z,100.00
2023-01-10T22:46:08.011Z,100.00
2023-01-10T22:48:36.645Z,100.00
2023-01-10T22:51:05.794Z,100.00
2023-01-10T22:53:33.968Z,100.00
2023-01-10T22:56:02.506Z,100.00
2023-01-10T22:58:30.123Z,100.00
2023-01-10T23:00:57.877Z,100.00
2023-01-10T23:03:25.503Z,100.00
2023-01-10T23:05:56.746Z,100.00
2023-01-10T23:08:25.177Z,100.00
2023-01-10T23:10:54.431Z,100.00
2023-01-10T23:13:22.593Z,100.00
2023-01-10T23:16:07.292Z,100.00
2023-01-10T23:18:35.087Z,100.00
2023-01-10T23:21:02.791Z,100.00
2023-01-10T23:23:30.740Z,100.00
2023-01-10T23:26:02.698Z,100.00
2023-01-10T23:28:38.314Z,100.00
2023-01-10T23:31:06.731Z,100.00
2023-01-10T23:33:34.516Z,100.00
2023-01-10T23:36:02.354Z,100.00
2023-01-10T23:38:30.013Z,100.00
2023-01-10T23:40:57.608Z,100.00
2023-01-10T23:43:25.341Z,100.00
2023-01-10T23:45:53.013Z,100.00
2023-01-10T23:48:21.423Z,100.00
2023-01-10T23:50:49.674Z,100.00
2023-01-10T23:53:17.321Z,100.00
2023-01-10T23:55:44.874Z,100.00
2023-01-10T23:58:12.433Z,100.00
